sensor_id;sensor_type;location;lat;lon;timestamp;pressure;altitude;pressure_sealevel;temperature;humidity
64115;BME280;62188;35.640;139.748;2023-01-28T00:01:11;100807.73;;;12.24;15.05
64115;BME280;62188;35.640;139.748;2023-01-28T00:03:35;100797.69;;;12.31;14.47
64115;BME280;62188;35.640;139.748;2023-01-28T00:06:03;100785.70;;;12.28;14.68
64115;BME280;62188;35.640;139.748;2023-01-28T00:08:26;100796.34;;;12.27;14.64
64115;BME280;62188;35.640;139.748;2023-01-28T00:10:52;100801.61;;;12.43;14.61
64115;BME280;62188;35.640;139.748;2023-01-28T00:13:18;100812.34;;;12.39;14.45
64115;BME280;62188;35.640;139.748;2023-01-28T00:15:44;100798.80;;;11.98;14.23
64115;BME280;62188;35.640;139.748;2023-01-28T00:18:10;100807.70;;;12.05;14.88
64115;BME280;62188;35.640;139.748;2023-01-28T00:20:35;100806.85;;;12.71;15.15
64115;BME280;62188;35.640;139.748;2023-01-28T00:23:01;100800.14;;;13.10;14.51
64115;BME280;62188;35.640;139.748;2023-01-28T00:25:27;100802.92;;;13.12;13.75
64115;BME280;62188;35.640;139.748;2023-01-28T00:27:52;100803.43;;;13.01;13.96
64115;BME280;62188;35.640;139.748;2023-01-28T00:30:18;100805.06;;;13.37;13.80
64115;BME280;62188;35.640;139.748;2023-01-28T00:32:44;100799.61;;;13.41;13.79
64115;BME280;62188;35.640;139.748;2023-01-28T00:35:10;100806.35;;;13.71;13.22
64115;BME280;62188;35.640;139.748;2023-01-28T00:37:35;100794.41;;;13.93;14.91
64115;BME280;62188;35.640;139.748;2023-01-28T00:40:01;100801.87;;;14.21;15.37
64115;BME280;62188;35.640;139.748;2023-01-28T00:42:27;100791.65;;;14.51;14.16
64115;BME280;62188;35.640;139.748;2023-01-28T00:44:53;100795.23;;;14.63;14.02
64115;BME280;62188;35.640;139.748;2023-01-28T00:47:18;100784.85;;;14.53;13.56
64115;BME280;62188;35.640;139.748;2023-01-28T00:49:44;100791.82;;;14.49;14.73
64115;BME280;62188;35.640;139.748;2023-01-28T00:52:09;100803.89;;;15.12;14.63
64115;BME280;62188;35.640;139.748;2023-01-28T00:54:35;100804.13;;;14.35;12.85
64115;BME280;62188;35.640;139.748;2023-01-28T00:57:01;100808.12;;;14.81;13.12
64115;BME280;62188;35.640;139.748;2023-01-28T00:59:27;100805.60;;;14.94;13.09
64115;BME280;62188;35.640;139.748;2023-01-28T01:01:52;100800.16;;;14.75;12.25
64115;BME280;62188;35.640;139.748;2023-01-28T01:04:18;100803.26;;;14.60;12.48
64115;BME280;62188;35.640;139.748;2023-01-28T01:06:43;100812.02;;;15.03;12.31
64115;BME280;62188;35.640;139.748;2023-01-28T01:09:11;100808.35;;;15.31;11.97
64115;BME280;62188;35.640;139.748;2023-01-28T01:11:35;100807.75;;;15.13;13.00
64115;BME280;62188;35.640;139.748;2023-01-28T01:14:02;100814.41;;;15.49;13.26
64115;BME280;62188;35.640;139.748;2023-01-28T01:16:28;100807.13;;;15.62;11.97
64115;BME280;62188;35.640;139.748;2023-01-28T01:18:53;100804.76;;;15.64;11.93
64115;BME280;62188;35.640;139.748;2023-01-28T01:21:19;100803.99;;;15.67;12.37
64115;BME280;62188;35.640;139.748;2023-01-28T01:23:44;100801.87;;;15.67;12.11
64115;BME280;62188;35.640;139.748;2023-01-28T01:26:10;100798.83;;;15.43;11.40
64115;BME280;62188;35.640;139.748;2023-01-28T01:28:35;100792.98;;;15.66;11.94
64115;BME280;62188;35.640;139.748;2023-01-28T01:31:01;100798.76;;;15.90;11.89
64115;BME280;62188;35.640;139.748;2023-01-28T01:33:27;100795.53;;;15.94;11.49
64115;BME280;62188;35.640;139.748;2023-01-28T01:35:54;100795.90;;;15.98;11.92
64115;BME280;62188;35.640;139.748;2023-01-28T01:38:17;100788.49;;;15.70;11.38
64115;BME280;62188;35.640;139.748;2023-01-28T01:40:43;100783.51;;;15.91;11.15
64115;BME280;62188;35.640;139.748;2023-01-28T01:43:16;100784.93;;;15.49;11.00
64115;BME280;62188;35.640;139.748;2023-01-28T01:45:34;100778.93;;;15.32;11.25
64115;BME280;62188;35.640;139.748;2023-01-28T01:48:03;100782.71;;;15.75;11.65
64115;BME280;62188;35.640;139.748;2023-01-28T01:50:30;100781.52;;;15.76;11.82
64115;BME280;62188;35.640;139.748;2023-01-28T01:52:53;100783.07;;;16.11;11.80
64115;BME280;62188;35.640;139.748;2023-01-28T01:55:20;100779.24;;;16.20;11.49
64115;BME280;62188;35.640;139.748;2023-01-28T01:57:44;100777.07;;;16.41;11.31
64115;BME280;62188;35.640;139.748;2023-01-28T02:00:09;100774.03;;;16.02;11.35
64115;BME280;62188;35.640;139.748;2023-01-28T02:02:37;100772.29;;;16.20;11.23
64115;BME280;62188;35.640;139.748;2023-01-28T02:05:00;100766.82;;;16.35;10.52
64115;BME280;62188;35.640;139.748;2023-01-28T02:07:25;100759.16;;;16.04;10.29
64115;BME280;62188;35.640;139.748;2023-01-28T02:09:51;100757.79;;;16.18;10.53
64115;BME280;62188;35.640;139.748;2023-01-28T02:12:19;100756.04;;;16.33;10.51
64115;BME280;62188;35.640;139.748;2023-01-28T02:14:44;100755.88;;;15.92;9.98
64115;BME280;62188;35.640;139.748;2023-01-28T02:17:08;100759.82;;;15.67;10.33
64115;BME280;62188;35.640;139.748;2023-01-28T02:19:38;100750.13;;;15.72;10.70
64115;BME280;62188;35.640;139.748;2023-01-28T02:26:59;100746.53;;;15.86;10.87
64115;BME280;62188;35.640;139.748;2023-01-28T02:29:22;100735.91;;;16.22;10.58
64115;BME280;62188;35.640;139.748;2023-01-28T02:31:46;100737.49;;;16.54;10.85
64115;BME280;62188;35.640;139.748;2023-01-28T02:34:12;100735.02;;;16.48;10.82
64115;BME280;62188;35.640;139.748;2023-01-28T02:36:38;100727.44;;;16.80;10.11
64115;BME280;62188;35.640;139.748;2023-01-28T02:39:02;100717.73;;;16.65;10.02
64115;BME280;62188;35.640;139.748;2023-01-28T02:41:30;100715.15;;;16.69;10.25
64115;BME280;62188;35.640;139.748;2023-01-28T02:43:50;100711.13;;;16.81;11.07
64115;BME280;62188;35.640;139.748;2023-01-28T02:46:31;100711.23;;;16.70;11.43
64115;BME280;62188;35.640;139.748;2023-01-28T02:48:41;100697.89;;;16.71;11.57
64115;BME280;62188;35.640;139.748;2023-01-28T02:51:13;100697.97;;;16.60;12.03
64115;BME280;62188;35.640;139.748;2023-01-28T02:53:38;100695.22;;;16.81;10.79
64115;BME280;62188;35.640;139.748;2023-01-28T02:56:04;100692.00;;;16.98;11.26
64115;BME280;62188;35.640;139.748;2023-01-28T02:58:29;100687.71;;;17.12;12.12
64115;BME280;62188;35.640;139.748;2023-01-28T03:00:53;100684.66;;;17.33;10.34
64115;BME280;62188;35.640;139.748;2023-01-28T03:03:19;100681.21;;;17.40;11.75
64115;BME280;62188;35.640;139.748;2023-01-28T03:05:44;100678.53;;;17.59;11.64
64115;BME280;62188;35.640;139.748;2023-01-28T03:08:07;100664.84;;;17.42;10.82
64115;BME280;62188;35.640;139.748;2023-01-28T03:10:32;100669.44;;;17.48;11.49
64115;BME280;62188;35.640;139.748;2023-01-28T03:12:58;100664.26;;;17.84;10.79
64115;BME280;62188;35.640;139.748;2023-01-28T03:15:25;100656.17;;;17.68;10.09
64115;BME280;62188;35.640;139.748;2023-01-28T03:17:53;100649.40;;;17.53;11.25
64115;BME280;62188;35.640;139.748;2023-01-28T03:20:15;100653.89;;;17.91;10.07
64115;BME280;62188;35.640;139.748;2023-01-28T03:22:42;100657.28;;;17.99;10.09
64115;BME280;62188;35.640;139.748;2023-01-28T03:25:06;100658.61;;;18.03;9.44
64115;BME280;62188;35.640;139.748;2023-01-28T03:27:35;100650.64;;;18.19;9.84
64115;BME280;62188;35.640;139.748;2023-01-28T03:29:59;100644.86;;;18.11;9.83
64115;BME280;62188;35.640;139.748;2023-01-28T03:32:23;100649.09;;;18.31;10.12
64115;BME280;62188;35.640;139.748;2023-01-28T03:34:48;100653.46;;;18.42;9.53
64115;BME280;62188;35.640;139.748;2023-01-28T03:37:13;100650.64;;;18.87;9.56
64115;BME280;62188;35.640;139.748;2023-01-28T03:39:39;100650.82;;;18.09;8.83
64115;BME280;62188;35.640;139.748;2023-01-28T03:42:07;100640.98;;;17.53;9.30
64115;BME280;62188;35.640;139.748;2023-01-28T03:44:30;100636.74;;;17.70;9.32
64115;BME280;62188;35.640;139.748;2023-01-28T03:46:56;100630.00;;;18.16;9.10
64115;BME280;62188;35.640;139.748;2023-01-28T03:49:21;100631.49;;;17.92;9.21
64115;BME280;62188;35.640;139.748;2023-01-28T03:51:47;100632.01;;;18.73;9.37
64115;BME280;62188;35.640;139.748;2023-01-28T03:54:14;100633.30;;;18.41;8.84
64115;BME280;62188;35.640;139.748;2023-01-28T03:56:38;100636.56;;;18.01;9.00
64115;BME280;62188;35.640;139.748;2023-01-28T03:59:03;100631.40;;;17.78;8.86
64115;BME280;62188;35.640;139.748;2023-01-28T04:01:29;100629.42;;;17.78;9.13
64115;BME280;62188;35.640;139.748;2023-01-28T04:03:55;100624.01;;;17.98;9.23
64115;BME280;62188;35.640;139.748;2023-01-28T04:06:21;100617.41;;;18.09;8.98
64115;BME280;62188;35.640;139.748;2023-01-28T04:08:46;100616.94;;;17.59;9.34
64115;BME280;62188;35.640;139.748;2023-01-28T04:11:11;100611.63;;;17.46;9.46
64115;BME280;62188;35.640;139.748;2023-01-28T04:13:37;100602.43;;;16.93;9.45
64115;BME280;62188;35.640;139.748;2023-01-28T04:16:03;100597.10;;;16.45;9.71
64115;BME280;62188;35.640;139.748;2023-01-28T04:18:29;100596.72;;;15.98;9.78
64115;BME280;62188;35.640;139.748;2023-01-28T04:20:54;100605.42;;;15.40;10.03
64115;BME280;62188;35.640;139.748;2023-01-28T04:23:19;100601.08;;;15.46;10.18
64115;BME280;62188;35.640;139.748;2023-01-28T04:25:45;100600.66;;;15.37;10.35
64115;BME280;62188;35.640;139.748;2023-01-28T04:28:16;100598.78;;;16.02;10.24
64115;BME280;62188;35.640;139.748;2023-01-28T04:30:37;100592.98;;;16.67;10.49
64115;BME280;62188;35.640;139.748;2023-01-28T04:33:02;100590.60;;;17.02;10.16
64115;BME280;62188;35.640;139.748;2023-01-28T04:35:28;100586.17;;;16.47;9.55
64115;BME280;62188;35.640;139.748;2023-01-28T04:37:53;100586.74;;;16.61;9.86
64115;BME280;62188;35.640;139.748;2023-01-28T04:40:19;100583.01;;;17.08;9.95
64115;BME280;62188;35.640;139.748;2023-01-28T04:42:52;100589.40;;;17.08;9.72
64115;BME280;62188;35.640;139.748;2023-01-28T04:45:11;100589.76;;;17.39;9.65
64115;BME280;62188;35.640;139.748;2023-01-28T04:47:36;100593.01;;;17.29;9.70
64115;BME280;62188;35.640;139.748;2023-01-28T04:50:01;100600.61;;;17.74;9.61
64115;BME280;62188;35.640;139.748;2023-01-28T04:52:27;100599.88;;;17.71;9.79
64115;BME280;62188;35.640;139.748;2023-01-28T04:54:53;100600.16;;;17.28;9.80
64115;BME280;62188;35.640;139.748;2023-01-28T04:57:18;100601.95;;;16.46;9.96
64115;BME280;62188;35.640;139.748;2023-01-28T04:59:44;100605.67;;;15.86;10.16
64115;BME280;62188;35.640;139.748;2023-01-28T05:02:10;100614.74;;;15.41;10.40
64115;BME280;62188;35.640;139.748;2023-01-28T05:04:35;100604.70;;;15.20;10.89
64115;BME280;62188;35.640;139.748;2023-01-28T05:07:01;100603.73;;;14.86;11.10
64115;BME280;62188;35.640;139.748;2023-01-28T05:09:26;100616.24;;;14.60;10.89
64115;BME280;62188;35.640;139.748;2023-01-28T05:11:52;100616.10;;;14.64;11.18
64115;BME280;62188;35.640;139.748;2023-01-28T05:14:18;100621.88;;;14.59;11.61
64115;BME280;62188;35.640;139.748;2023-01-28T05:16:43;100627.13;;;14.03;11.68
64115;BME280;62188;35.640;139.748;2023-01-28T05:19:10;100626.71;;;14.06;12.02
64115;BME280;62188;35.640;139.748;2023-01-28T05:21:35;100629.24;;;13.88;11.65
64115;BME280;62188;35.640;139.748;2023-01-28T05:24:00;100625.84;;;13.62;12.07
64115;BME280;62188;35.640;139.748;2023-01-28T05:26:26;100624.10;;;13.55;12.18
64115;BME280;62188;35.640;139.748;2023-01-28T05:28:52;100629.23;;;13.41;12.19
64115;BME280;62188;35.640;139.748;2023-01-28T05:31:18;100632.17;;;13.13;11.87
64115;BME280;62188;35.640;139.748;2023-01-28T05:33:43;100633.87;;;13.22;12.80
64115;BME280;62188;35.640;139.748;2023-01-28T05:36:09;100634.69;;;13.24;12.80
64115;BME280;62188;35.640;139.748;2023-01-28T05:38:34;100636.83;;;13.06;13.02
64115;BME280;62188;35.640;139.748;2023-01-28T05:41:00;100641.23;;;13.34;14.48
64115;BME280;62188;35.640;139.748;2023-01-28T05:43:26;100640.41;;;13.23;14.78
64115;BME280;62188;35.640;139.748;2023-01-28T05:45:51;100633.39;;;13.09;15.54
64115;BME280;62188;35.640;139.748;2023-01-28T05:48:17;100633.17;;;12.78;13.97
64115;BME280;62188;35.640;139.748;2023-01-28T05:50:45;100636.98;;;12.66;14.72
64115;BME280;62188;35.640;139.748;2023-01-28T05:53:09;100640.57;;;12.73;14.41
64115;BME280;62188;35.640;139.748;2023-01-28T05:55:34;100642.87;;;12.69;15.61
64115;BME280;62188;35.640;139.748;2023-01-28T05:57:59;100648.55;;;13.28;15.81
64115;BME280;62188;35.640;139.748;2023-01-28T06:00:25;100654.60;;;12.74;15.93
64115;BME280;62188;35.640;139.748;2023-01-28T06:02:52;100655.61;;;12.82;14.61
64115;BME280;62188;35.640;139.748;2023-01-28T06:05:16;100657.16;;;12.82;14.65
64115;BME280;62188;35.640;139.748;2023-01-28T06:07:45;100660.42;;;12.84;13.84
64115;BME280;62188;35.640;139.748;2023-01-28T06:10:08;100662.13;;;12.68;14.57
64115;BME280;62188;35.640;139.748;2023-01-28T06:12:33;100662.41;;;12.93;14.74
64115;BME280;62188;35.640;139.748;2023-01-28T06:14:59;100661.16;;;12.78;14.67
64115;BME280;62188;35.640;139.748;2023-01-28T06:17:24;100659.90;;;12.48;15.21
64115;BME280;62188;35.640;139.748;2023-01-28T06:19:50;100661.79;;;12.27;14.66
64115;BME280;62188;35.640;139.748;2023-01-28T06:22:15;100662.50;;;12.26;14.44
64115;BME280;62188;35.640;139.748;2023-01-28T06:24:41;100670.76;;;12.36;14.38
64115;BME280;62188;35.640;139.748;2023-01-28T06:27:07;100673.70;;;12.19;14.61
64115;BME280;62188;35.640;139.748;2023-01-28T06:29:33;100678.86;;;12.44;14.61
64115;BME280;62188;35.640;139.748;2023-01-28T06:31:58;100684.28;;;12.49;14.78
64115;BME280;62188;35.640;139.748;2023-01-28T06:34:24;100695.59;;;12.41;14.80
64115;BME280;62188;35.640;139.748;2023-01-28T06:36:50;100703.33;;;12.15;14.16
64115;BME280;62188;35.640;139.748;2023-01-28T06:39:16;100705.83;;;12.36;14.79
64115;BME280;62188;35.640;139.748;2023-01-28T06:41:41;100708.29;;;12.37;13.97
64115;BME280;62188;35.640;139.748;2023-01-28T06:44:07;100708.71;;;12.06;13.96
64115;BME280;62188;35.640;139.748;2023-01-28T06:46:33;100707.61;;;12.27;13.45
64115;BME280;62188;35.640;139.748;2023-01-28T06:48:58;100709.29;;;12.02;13.82
64115;BME280;62188;35.640;139.748;2023-01-28T06:51:24;100705.37;;;12.17;14.48
64115;BME280;62188;35.640;139.748;2023-01-28T06:53:50;100704.39;;;12.01;14.29
64115;BME280;62188;35.640;139.748;2023-01-28T06:56:16;100710.74;;;11.97;14.73
64115;BME280;62188;35.640;139.748;2023-01-28T06:58:42;100713.49;;;12.19;14.56
64115;BME280;62188;35.640;139.748;2023-01-28T07:01:07;100720.69;;;11.95;14.92
64115;BME280;62188;35.640;139.748;2023-01-28T07:03:33;100722.49;;;12.27;15.32
64115;BME280;62188;35.640;139.748;2023-01-28T07:05:58;100726.53;;;12.07;14.68
64115;BME280;62188;35.640;139.748;2023-01-28T07:08:25;100729.65;;;12.12;15.04
64115;BME280;62188;35.640;139.748;2023-01-28T07:10:50;100734.49;;;12.10;14.82
64115;BME280;62188;35.640;139.748;2023-01-28T07:13:16;100735.32;;;11.80;14.53
64115;BME280;62188;35.640;139.748;2023-01-28T07:15:42;100742.41;;;11.91;14.83
64115;BME280;62188;35.640;139.748;2023-01-28T07:18:07;100742.97;;;11.97;14.87
64115;BME280;62188;35.640;139.748;2023-01-28T07:20:33;100746.37;;;11.97;15.20
64115;BME280;62188;35.640;139.748;2023-01-28T07:22:59;100755.59;;;12.18;14.22
64115;BME280;62188;35.640;139.748;2023-01-28T07:25:24;100762.19;;;12.18;14.48
64115;BME280;62188;35.640;139.748;2023-01-28T07:27:52;100764.11;;;11.91;14.52
64115;BME280;62188;35.640;139.748;2023-01-28T07:30:17;100765.09;;;11.84;14.79
64115;BME280;62188;35.640;139.748;2023-01-28T07:32:42;100764.86;;;11.61;14.31
64115;BME280;62188;35.640;139.748;2023-01-28T07:35:08;100767.05;;;11.86;14.48
64115;BME280;62188;35.640;139.748;2023-01-28T07:37:33;100768.97;;;11.90;15.17
64115;BME280;62188;35.640;139.748;2023-01-28T07:39:59;100770.17;;;12.10;15.45
64115;BME280;62188;35.640;139.748;2023-01-28T07:42:25;100773.17;;;12.12;15.85
64115;BME280;62188;35.640;139.748;2023-01-28T07:44:50;100769.27;;;12.05;15.41
64115;BME280;62188;35.640;139.748;2023-01-28T07:47:16;100771.54;;;12.08;15.78
64115;BME280;62188;35.640;139.748;2023-01-28T07:49:42;100769.51;;;11.84;15.06
64115;BME280;62188;35.640;139.748;2023-01-28T07:52:08;100767.82;;;11.75;14.38
64115;BME280;62188;35.640;139.748;2023-01-28T07:54:33;100767.37;;;11.97;14.61
64115;BME280;62188;35.640;139.748;2023-01-28T07:56:59;100766.44;;;11.37;14.63
64115;BME280;62188;35.640;139.748;2023-01-28T07:59:25;100764.91;;;11.53;15.12
64115;BME280;62188;35.640;139.748;2023-01-28T08:01:50;100765.44;;;11.56;14.57
64115;BME280;62188;35.640;139.748;2023-01-28T08:04:16;100769.15;;;11.45;14.68
64115;BME280;62188;35.640;139.748;2023-01-28T08:06:42;100766.27;;;11.08;14.52
64115;BME280;62188;35.640;139.748;2023-01-28T08:09:08;100769.18;;;11.17;14.70
64115;BME280;62188;35.640;139.748;2023-01-28T08:11:36;100774.04;;;11.28;15.28
64115;BME280;62188;35.640;139.748;2023-01-28T08:13:59;100779.64;;;11.26;15.65
64115;BME280;62188;35.640;139.748;2023-01-28T08:16:25;100779.08;;;11.51;15.89
64115;BME280;62188;35.640;139.748;2023-01-28T08:18:51;100778.94;;;11.44;15.17
64115;BME280;62188;35.640;139.748;2023-01-28T08:21:16;100785.66;;;11.23;15.37
64115;BME280;62188;35.640;139.748;2023-01-28T08:23:42;100793.17;;;11.28;15.29
64115;BME280;62188;35.640;139.748;2023-01-28T08:26:08;100804.25;;;11.49;15.32
64115;BME280;62188;35.640;139.748;2023-01-28T08:28:33;100803.80;;;11.48;15.36
64115;BME280;62188;35.640;139.748;2023-01-28T08:31:00;100802.80;;;11.47;15.80
64115;BME280;62188;35.640;139.748;2023-01-28T08:33:25;100805.45;;;11.46;16.07
64115;BME280;62188;35.640;139.748;2023-01-28T08:35:51;100811.71;;;11.48;15.19
64115;BME280;62188;35.640;139.748;2023-01-28T08:38:17;100814.84;;;11.40;14.63
64115;BME280;62188;35.640;139.748;2023-01-28T08:40:42;100824.39;;;11.32;14.73
64115;BME280;62188;35.640;139.748;2023-01-28T08:43:08;100828.40;;;11.34;15.23
64115;BME280;62188;35.640;139.748;2023-01-28T08:45:34;100827.47;;;11.38;15.02
64115;BME280;62188;35.640;139.748;2023-01-28T08:48:02;100829.08;;;11.14;15.18
64115;BME280;62188;35.640;139.748;2023-01-28T08:50:27;100824.64;;;11.10;14.85
64115;BME280;62188;35.640;139.748;2023-01-28T08:52:56;100820.13;;;11.37;14.46
64115;BME280;62188;35.640;139.748;2023-01-28T08:55:17;100821.32;;;11.41;15.13
64115;BME280;62188;35.640;139.748;2023-01-28T08:57:43;100821.85;;;11.42;15.78
64115;BME280;62188;35.640;139.748;2023-01-28T09:00:10;100817.85;;;11.09;14.95
64115;BME280;62188;35.640;139.748;2023-01-28T09:02:34;100810.46;;;11.14;15.00
64115;BME280;62188;35.640;139.748;2023-01-28T09:05:00;100807.16;;;11.05;14.86
64115;BME280;62188;35.640;139.748;2023-01-28T09:07:26;100813.36;;;10.67;14.89
64115;BME280;62188;35.640;139.748;2023-01-28T09:09:51;100819.30;;;10.87;15.31
64115;BME280;62188;35.640;139.748;2023-01-28T09:12:17;100827.42;;;10.82;15.12
64115;BME280;62188;35.640;139.748;2023-01-28T09:14:43;100834.20;;;10.61;15.49
64115;BME280;62188;35.640;139.748;2023-01-28T09:17:09;100829.89;;;10.90;15.69
64115;BME280;62188;35.640;139.748;2023-01-28T09:19:34;100830.06;;;10.86;15.86
64115;BME280;62188;35.640;139.748;2023-01-28T09:22:01;100832.37;;;10.66;15.91
64115;BME280;62188;35.640;139.748;2023-01-28T09:24:26;100832.63;;;10.74;15.76
64115;BME280;62188;35.640;139.748;2023-01-28T09:26:52;100828.87;;;11.03;15.71
64115;BME280;62188;35.640;139.748;2023-01-28T09:29:18;100828.69;;;11.04;15.16
64115;BME280;62188;35.640;139.748;2023-01-28T09:31:43;100829.91;;;11.07;15.22
64115;BME280;62188;35.640;139.748;2023-01-28T09:34:09;100831.31;;;11.07;15.47
64115;BME280;62188;35.640;139.748;2023-01-28T09:36:34;100828.82;;;10.82;15.50
64115;BME280;62188;35.640;139.748;2023-01-28T09:39:00;100826.45;;;11.05;15.30
64115;BME280;62188;35.640;139.748;2023-01-28T09:41:29;100826.51;;;11.09;15.16
64115;BME280;62188;35.640;139.748;2023-01-28T09:44:02;100827.25;;;10.98;15.44
64115;BME280;62188;35.640;139.748;2023-01-28T09:46:17;100827.12;;;10.73;15.23
64115;BME280;62188;35.640;139.748;2023-01-28T09:48:45;100826.97;;;10.64;15.33
64115;BME280;62188;35.640;139.748;2023-01-28T09:51:18;100828.81;;;10.63;15.37
64115;BME280;62188;35.640;139.748;2023-01-28T09:53:39;100835.46;;;10.64;15.38
64115;BME280;62188;35.640;139.748;2023-01-28T09:56:03;100842.57;;;11.10;15.29
64115;BME280;62188;35.640;139.748;2023-01-28T09:58:26;100846.49;;;10.81;15.02
64115;BME280;62188;35.640;139.748;2023-01-28T10:00:58;100847.36;;;10.53;14.80
64115;BME280;62188;35.640;139.748;2023-01-28T10:03:32;100849.15;;;10.33;15.33
64115;BME280;62188;35.640;139.748;2023-01-28T10:05:50;100854.29;;;10.82;15.19
64115;BME280;62188;35.640;139.748;2023-01-28T10:08:21;100858.15;;;10.59;15.35
64115;BME280;62188;35.640;139.748;2023-01-28T10:10:40;100865.05;;;10.64;15.15
64115;BME280;62188;35.640;139.748;2023-01-28T10:13:14;100868.37;;;10.66;15.47
64115;BME280;62188;35.640;139.748;2023-01-28T10:17:56;100874.81;;;11.15;15.14
64115;BME280;62188;35.640;139.748;2023-01-28T10:20:23;100876.95;;;10.69;15.46
64115;BME280;62188;35.640;139.748;2023-01-28T10:22:47;100875.58;;;10.64;15.81
64115;BME280;62188;35.640;139.748;2023-01-28T10:25:18;100875.96;;;10.68;15.32
64115;BME280;62188;35.640;139.748;2023-01-28T10:27:36;100874.78;;;10.63;15.29
64115;BME280;62188;35.640;139.748;2023-01-28T10:30:14;100874.82;;;10.89;15.71
64115;BME280;62188;35.640;139.748;2023-01-28T10:32:30;100875.27;;;10.64;15.31
64115;BME280;62188;35.640;139.748;2023-01-28T10:34:53;100877.52;;;10.71;15.67
64115;BME280;62188;35.640;139.748;2023-01-28T10:37:19;100878.65;;;10.69;15.82
64115;BME280;62188;35.640;139.748;2023-01-28T10:39:45;100883.51;;;10.57;15.72
64115;BME280;62188;35.640;139.748;2023-01-28T10:42:19;100890.70;;;10.58;15.62
64115;BME280;62188;35.640;139.748;2023-01-28T10:44:38;100897.40;;;10.77;15.50
64115;BME280;62188;35.640;139.748;2023-01-28T10:47:07;100905.82;;;10.35;15.23
64115;BME280;62188;35.640;139.748;2023-01-28T10:49:29;100905.12;;;10.32;15.90
64115;BME280;62188;35.640;139.748;2023-01-28T10:51:54;100907.94;;;10.40;16.13
64115;BME280;62188;35.640;139.748;2023-01-28T10:54:21;100903.94;;;10.46;16.36
64115;BME280;62188;35.640;139.748;2023-01-28T10:56:45;100901.85;;;10.46;15.53
64115;BME280;62188;35.640;139.748;2023-01-28T10:59:19;100897.34;;;10.80;15.50
64115;BME280;62188;35.640;139.748;2023-01-28T11:01:42;100900.33;;;10.51;15.34
64115;BME280;62188;35.640;139.748;2023-01-28T11:04:02;100900.64;;;10.27;15.80
64115;BME280;62188;35.640;139.748;2023-01-28T11:06:29;100897.27;;;10.21;15.62
64115;BME280;62188;35.640;139.748;2023-01-28T11:08:54;100897.94;;;10.75;15.79
64115;BME280;62188;35.640;139.748;2023-01-28T11:11:25;100895.52;;;10.26;15.40
64115;BME280;62188;35.640;139.748;2023-01-28T11:13:49;100892.60;;;10.26;15.45
64115;BME280;62188;35.640;139.748;2023-01-28T11:16:15;100891.29;;;10.23;15.13
64115;BME280;62188;35.640;139.748;2023-01-28T11:18:45;100893.93;;;10.43;15.17
64115;BME280;62188;35.640;139.748;2023-01-28T11:21:04;100893.59;;;10.47;15.05
64115;BME280;62188;35.640;139.748;2023-01-28T11:23:30;100896.23;;;10.33;15.30
64115;BME280;62188;35.640;139.748;2023-01-28T11:26:05;100898.82;;;10.37;15.52
64115;BME280;62188;35.640;139.748;2023-01-28T11:28:21;100904.32;;;10.63;15.92
64115;BME280;62188;35.640;139.748;2023-01-28T11:30:50;100905.77;;;10.39;15.67
64115;BME280;62188;35.640;139.748;2023-01-28T11:33:17;100908.07;;;10.36;15.53
64115;BME280;62188;35.640;139.748;2023-01-28T11:35:37;100911.09;;;10.32;15.45
64115;BME280;62188;35.640;139.748;2023-01-28T11:38:02;100912.76;;;10.29;15.52
64115;BME280;62188;35.640;139.748;2023-01-28T11:40:29;100917.88;;;10.23;15.57
64115;BME280;62188;35.640;139.748;2023-01-28T11:42:55;100921.95;;;10.46;15.78
64115;BME280;62188;35.640;139.748;2023-01-28T11:45:24;100920.46;;;10.13;15.63
64115;BME280;62188;35.640;139.748;2023-01-28T11:48:01;100925.95;;;10.06;15.79
64115;BME280;62188;35.640;139.748;2023-01-28T11:50:21;100923.09;;;10.23;15.56
64115;BME280;62188;35.640;139.748;2023-01-28T11:52:44;100929.82;;;10.07;16.01
64115;BME280;62188;35.640;139.748;2023-01-28T11:55:17;100936.74;;;9.97;15.96
64115;BME280;62188;35.640;139.748;2023-01-28T11:57:36;100942.66;;;9.80;16.35
64115;BME280;62188;35.640;139.748;2023-01-28T12:00:06;100945.48;;;10.32;15.95
64115;BME280;62188;35.640;139.748;2023-01-28T12:04:57;100950.80;;;9.87;15.97
64115;BME280;62188;35.640;139.748;2023-01-28T12:07:22;100951.18;;;10.05;16.01
64115;BME280;62188;35.640;139.748;2023-01-28T12:09:45;100955.22;;;10.04;16.08
64115;BME280;62188;35.640;139.748;2023-01-28T12:12:14;100951.07;;;10.25;16.32
64115;BME280;62188;35.640;139.748;2023-01-28T12:14:35;100947.26;;;10.23;16.05
64115;BME280;62188;35.640;139.748;2023-01-28T12:17:06;100943.84;;;9.95;16.19
64115;BME280;62188;35.640;139.748;2023-01-28T12:19:30;100942.07;;;10.18;16.14
64115;BME280;62188;35.640;139.748;2023-01-28T12:21:59;100936.23;;;9.91;16.28
64115;BME280;62188;35.640;139.748;2023-01-28T12:24:23;100925.56;;;9.87;16.63
64115;BME280;62188;35.640;139.748;2023-01-28T12:26:46;100919.56;;;10.06;16.33
64115;BME280;62188;35.640;139.748;2023-01-28T12:29:16;100921.32;;;10.10;16.72
64115;BME280;62188;35.640;139.748;2023-01-28T12:31:40;100923.54;;;9.76;16.46